Time;durP1;ratioP1;P1;durP2;ratioP2;P2;SDS_P1;SDS_P2;PMS_P1;PMS_P2;Temp;Humidity;BMP_temperature;BMP_pressure;BME280_temperature;BME280_humidity;BME280_pressure;Samples;Min_cycle;Max_cycle;Signal;HPM_P1;HPM_P2
2020/12/12 00:01:19;;;;;;;98.57;43.35;;;1.70;99.90;;;;;;5048678;28;20200;-82
2020/12/12 00:03:45;;;;;;;84.25;44.38;;;1.60;99.90;;;;;;5046528;28;20668;-82
2020/12/12 00:06:13;;;;;;;90.70;47.28;;;1.70;99.90;;;;;;5047700;28;20204;-82
2020/12/12 00:08:39;;;;;;;105.85;46.33;;;1.60;99.90;;;;;;5043706;28;20306;-82
2020/12/12 00:11:05;;;;;;;104.32;43.92;;;1.60;99.90;;;;;;5045554;28;20538;-82
2020/12/12 00:13:32;;;;;;;89.10;43.97;;;1.60;99.90;;;;;;5049438;28;20229;-81
2020/12/12 00:15:58;;;;;;;86.85;40.28;;;1.50;99.90;;;;;;5051424;28;20192;-81
2020/12/12 00:18:24;;;;;;;105.88;44.08;;;1.50;99.90;;;;;;5052589;28;20245;-82
2020/12/12 00:20:51;;;;;;;89.18;42.00;;;1.50;99.90;;;;;;5051412;28;20238;-84
2020/12/12 00:23:18;;;;;;;118.22;46.28;;;1.50;99.90;;;;;;5051021;28;20199;-83
2020/12/12 00:25:47;;;;;;;106.53;42.40;;;1.50;99.90;;;;;;5051243;28;20275;-81
2020/12/12 00:28:14;;;;;;;111.43;44.60;;;1.40;99.90;;;;;;5052977;28;20250;-82
2020/12/12 00:30:40;;;;;;;104.43;43.35;;;1.40;99.90;;;;;;5051623;28;20230;-82
2020/12/12 00:33:07;;;;;;;99.28;45.15;;;1.50;99.90;;;;;;5051702;28;20275;-82
2020/12/12 00:35:33;;;;;;;95.82;41.45;;;1.40;99.90;;;;;;5052512;28;20207;-82
2020/12/12 00:37:59;;;;;;;92.03;41.58;;;1.50;99.90;;;;;;5046597;28;20232;-82
2020/12/12 00:40:26;;;;;;;105.00;44.60;;;1.50;99.90;;;;;;5045985;28;20200;-81
2020/12/12 00:42:53;;;;;;;102.30;43.22;;;1.50;99.90;;;;;;5044719;28;20691;-82
2020/12/12 00:45:19;;;;;;;105.32;42.85;;;1.50;99.90;;;;;;5044451;28;20294;-81
2020/12/12 00:47:45;;;;;;;100.78;44.35;;;1.40;99.90;;;;;;5043510;28;20235;-82
2020/12/12 00:50:12;;;;;;;108.90;42.83;;;1.40;99.90;;;;;;5041611;28;20290;-81
2020/12/12 00:52:38;;;;;;;113.85;45.65;;;1.40;99.90;;;;;;5041460;28;20227;-82
2020/12/12 00:55:05;;;;;;;113.72;48.20;;;1.40;99.90;;;;;;5042200;28;20236;-81
2020/12/12 00:57:32;;;;;;;100.53;46.10;;;1.50;99.90;;;;;;5043073;28;20219;-82
2020/12/12 00:59:58;;;;;;;115.60;45.85;;;1.50;99.90;;;;;;5046322;28;20271;-82
2020/12/12 01:02:25;;;;;;;108.90;42.80;;;1.50;99.90;;;;;;5047777;28;20235;-81
2020/12/12 01:04:51;;;;;;;107.47;44.95;;;1.50;99.90;;;;;;5041524;28;20690;-80
2020/12/12 01:07:21;;;;;;;101.75;43.50;;;1.50;99.90;;;;;;5041650;28;20233;-82
2020/12/12 01:09:47;;;;;;;110.38;44.60;;;1.50;99.90;;;;;;5042851;28;20200;-81
2020/12/12 01:12:16;;;;;;;109.03;45.47;;;1.50;99.90;;;;;;5042126;28;20236;-80
2020/12/12 01:14:43;;;;;;;112.63;44.88;;;1.40;99.90;;;;;;5041381;28;20198;-82
2020/12/12 01:17:09;;;;;;;90.25;43.22;;;1.50;99.90;;;;;;5041410;28;20214;-81
2020/12/12 01:19:36;;;;;;;107.32;46.63;;;1.40;99.90;;;;;;5049894;28;20271;-81
2020/12/12 01:22:02;;;;;;;96.35;40.38;;;1.40;99.90;;;;;;5052007;28;20200;-82
2020/12/12 01:24:28;;;;;;;101.43;44.72;;;1.40;99.90;;;;;;5050434;28;20204;-81
2020/12/12 01:26:55;;;;;;;89.15;41.42;;;1.40;99.90;;;;;;5044540;28;20207;-81
2020/12/12 01:29:21;;;;;;;99.32;43.15;;;1.40;99.90;;;;;;5043254;28;20227;-82
2020/12/12 01:31:49;;;;;;;103.13;43.50;;;1.40;99.90;;;;;;5042433;28;20214;-81
2020/12/12 01:34:15;;;;;;;101.35;45.00;;;1.40;99.90;;;;;;5043738;28;20212;-80
2020/12/12 01:36:41;;;;;;;115.63;45.60;;;1.40;99.90;;;;;;5046264;28;20204;-81
2020/12/12 01:39:08;;;;;;;117.82;43.72;;;1.30;99.90;;;;;;5051172;28;20243;-81
2020/12/12 01:41:34;;;;;;;88.80;41.55;;;1.40;99.90;;;;;;5050270;28;20211;-82
2020/12/12 01:44:00;;;;;;;109.72;45.50;;;1.40;99.90;;;;;;5048247;28;20259;-81
2020/12/12 01:46:27;;;;;;;98.47;42.92;;;1.40;99.90;;;;;;5051109;28;20204;-81
2020/12/12 01:48:56;;;;;;;106.75;43.97;;;1.30;99.90;;;;;;5053275;28;20270;-81
2020/12/12 01:51:25;;;;;;;102.45;44.97;;;1.30;99.90;;;;;;5054224;28;20214;-81
2020/12/12 01:53:54;;;;;;;99.28;43.65;;;1.30;99.90;;;;;;5055939;28;20226;-81
2020/12/12 01:56:20;;;;;;;106.93;41.47;;;1.30;99.90;;;;;;5053977;28;20238;-82
2020/12/12 01:58:47;;;;;;;106.10;43.30;;;1.30;99.90;;;;;;5053518;28;20282;-82
2020/12/12 02:01:14;;;;;;;106.00;42.13;;;1.30;99.90;;;;;;5049491;28;20230;-82
2020/12/12 02:03:42;;;;;;;98.07;46.17;;;1.30;99.90;;;;;;5045589;28;20644;-82
2020/12/12 02:06:13;;;;;;;94.25;40.53;;;1.20;99.90;;;;;;5044918;28;20306;-81
2020/12/12 02:08:40;;;;;;;110.70;43.75;;;1.20;99.90;;;;;;5042908;28;20243;-82
2020/12/12 02:11:12;;;;;;;104.75;45.05;;;1.20;99.90;;;;;;5042111;28;20200;-82
2020/12/12 02:13:39;;;;;;;114.82;42.88;;;1.20;99.90;;;;;;5041187;28;20688;-82
2020/12/12 02:16:05;;;;;;;109.97;44.25;;;1.20;99.90;;;;;;5042086;28;20208;-81
2020/12/12 02:18:32;;;;;;;109.80;45.10;;;1.20;99.90;;;;;;5041145;28;20227;-81
2020/12/12 02:21:00;;;;;;;94.82;41.92;;;1.20;99.90;;;;;;5040815;28;20703;-82
2020/12/12 02:23:28;;;;;;;116.80;44.70;;;1.10;99.90;;;;;;5040168;28;20199;-81
2020/12/12 02:25:56;;;;;;;92.03;43.10;;;1.10;99.90;;;;;;5042282;28;20227;-81
2020/12/12 02:28:24;;;;;;;99.15;43.60;;;1.10;99.90;;;;;;5041468;28;20315;-80
2020/12/12 02:30:51;;;;;;;102.80;43.30;;;1.10;99.90;;;;;;5042418;28;20238;-81
2020/12/12 02:33:18;;;;;;;93.07;41.20;;;1.10;99.90;;;;;;5041554;28;20230;-81
2020/12/12 02:35:44;;;;;;;95.65;43.08;;;1.10;99.90;;;;;;5041954;28;20250;-82
2020/12/12 02:38:11;;;;;;;109.47;42.78;;;1.10;99.90;;;;;;5041461;28;20600;-81
2020/12/12 02:40:39;;;;;;;110.63;45.30;;;1.10;99.90;;;;;;5041315;28;20223;-81
2020/12/12 02:43:10;;;;;;;88.32;43.28;;;1.10;99.90;;;;;;5042620;28;20203;-82
2020/12/12 02:45:36;;;;;;;101.55;43.45;;;1.10;99.90;;;;;;5041893;28;20199;-81
2020/12/12 02:48:03;;;;;;;102.70;43.53;;;1.10;99.90;;;;;;5041288;28;20241;-80
2020/12/12 02:50:29;;;;;;;95.65;43.88;;;1.10;99.90;;;;;;5041464;28;20633;-80
2020/12/12 02:52:55;;;;;;;113.05;43.20;;;1.10;99.90;;;;;;5043874;28;20231;-80
2020/12/12 02:55:22;;;;;;;107.95;44.80;;;1.10;99.90;;;;;;5041880;28;20287;-80
2020/12/12 02:57:49;;;;;;;102.35;42.13;;;1.00;99.90;;;;;;5041422;28;20219;-80
2020/12/12 03:00:18;;;;;;;121.15;43.45;;;1.10;99.90;;;;;;5041369;28;20290;-80
2020/12/12 03:02:44;;;;;;;94.93;40.80;;;1.10;99.90;;;;;;5040466;28;20206;-80
2020/12/12 03:05:11;;;;;;;102.18;42.58;;;1.10;99.90;;;;;;5039809;28;20664;-80
2020/12/12 03:07:37;;;;;;;95.68;40.45;;;1.10;99.90;;;;;;5040415;28;20311;-81
2020/12/12 03:10:06;;;;;;;97.85;43.67;;;1.10;99.90;;;;;;5039813;28;20207;-80
2020/12/12 03:12:33;;;;;;;86.07;41.65;;;1.10;99.90;;;;;;5039192;28;20281;-80
2020/12/12 03:15:00;;;;;;;108.18;43.42;;;1.10;99.90;;;;;;5037926;28;20203;-81
2020/12/12 03:17:26;;;;;;;98.57;42.83;;;1.10;99.90;;;;;;5039688;28;20328;-80
2020/12/12 03:19:53;;;;;;;92.93;40.60;;;1.20;99.90;;;;;;5038763;28;20214;-80
2020/12/12 03:22:19;;;;;;;107.63;42.20;;;1.20;99.90;;;;;;5038245;28;20294;-80
2020/12/12 03:24:46;;;;;;;94.82;41.78;;;1.20;99.90;;;;;;5039037;28;20200;-80
2020/12/12 03:27:13;;;;;;;84.80;39.83;;;1.20;99.90;;;;;;5038256;28;20265;-81
2020/12/12 03:29:39;;;;;;;78.05;39.35;;;1.20;99.90;;;;;;5039711;28;20195;-81
2020/12/12 03:32:08;;;;;;;95.00;41.60;;;1.20;99.90;;;;;;5038533;28;20242;-81
2020/12/12 03:34:35;;;;;;;91.43;40.15;;;1.10;99.90;;;;;;5038894;28;20259;-80
2020/12/12 03:37:02;;;;;;;89.45;41.67;;;1.10;99.90;;;;;;5039297;28;20241;-81
2020/12/12 03:39:28;;;;;;;81.95;41.15;;;1.10;99.90;;;;;;5038334;28;20340;-81
2020/12/12 03:41:55;;;;;;;92.00;42.20;;;1.20;99.90;;;;;;5021320;28;20204;-81
2020/12/12 03:44:21;;;;;;;87.55;39.83;;;1.20;99.90;;;;;;5038965;28;20294;-81
2020/12/12 03:46:48;;;;;;;87.75;40.35;;;1.20;99.90;;;;;;5042461;28;20267;-81
2020/12/12 03:49:15;;;;;;;78.85;39.53;;;1.20;99.90;;;;;;5042231;28;20231;-82
2020/12/12 03:51:41;;;;;;;94.15;40.95;;;1.20;99.90;;;;;;5043709;28;20294;-81
2020/12/12 03:54:08;;;;;;;83.80;41.45;;;1.20;99.90;;;;;;5043487;28;20238;-81
2020/12/12 03:56:34;;;;;;;81.78;37.75;;;1.10;99.90;;;;;;5042778;28;20275;-81
2020/12/12 03:59:00;;;;;;;79.13;39.65;;;1.20;99.90;;;;;;5042486;28;20247;-81
2020/12/12 04:01:27;;;;;;;83.45;40.60;;;1.20;99.90;;;;;;5039327;28;20203;-81
2020/12/12 04:03:53;;;;;;;76.68;38.20;;;1.20;99.90;;;;;;5038393;28;20402;-81
2020/12/12 04:06:21;;;;;;;84.80;39.45;;;1.20;99.90;;;;;;5038926;28;20708;-81
2020/12/12 04:08:48;;;;;;;78.43;39.35;;;1.20;99.90;;;;;;5038749;28;20344;-82
2020/12/12 04:11:14;;;;;;;79.20;38.38;;;1.20;99.90;;;;;;5039974;28;20616;-81
2020/12/12 04:13:41;;;;;;;86.55;39.22;;;1.20;99.90;;;;;;5039156;28;20219;-81
2020/12/12 04:16:07;;;;;;;83.65;39.55;;;1.20;99.90;;;;;;5038194;28;20294;-81
2020/12/12 04:18:34;;;;;;;82.38;38.50;;;1.20;99.90;;;;;;5039136;28;20319;-81
2020/12/12 04:21:00;;;;;;;74.18;37.53;;;1.20;99.90;;;;;;5038975;28;20210;-81
2020/12/12 04:23:28;;;;;;;80.00;38.90;;;1.20;99.90;;;;;;5040419;28;20231;-81
2020/12/12 04:25:54;;;;;;;74.90;38.72;;;1.20;99.90;;;;;;5046910;28;20200;-81
2020/12/12 04:28:21;;;;;;;85.82;41.58;;;1.20;99.90;;;;;;5054225;28;20229;-82
2020/12/12 04:30:47;;;;;;;76.05;39.20;;;1.20;99.90;;;;;;5045813;28;20557;-81
2020/12/12 04:33:13;;;;;;;69.75;38.90;;;1.10;99.90;;;;;;5039161;28;20228;-82
2020/12/12 04:35:40;;;;;;;74.97;35.22;;;1.10;99.90;;;;;;5037519;28;20204;-81
2020/12/12 04:38:06;;;;;;;71.75;37.92;;;1.10;99.90;;;;;;5039669;28;20237;-81
2020/12/12 04:40:34;;;;;;;83.82;39.97;;;1.10;99.90;;;;;;5053776;28;20199;-81
2020/12/12 04:43:03;;;;;;;73.07;36.70;;;1.10;99.90;;;;;;5054748;28;20203;-81
2020/12/12 04:45:30;;;;;;;76.60;37.72;;;1.20;99.90;;;;;;5043397;28;20210;-82
2020/12/12 04:47:56;;;;;;;77.97;37.38;;;1.10;99.90;;;;;;5040451;28;20235;-80
2020/12/12 04:50:28;;;;;;;75.03;39.10;;;1.10;99.90;;;;;;5039885;28;20204;-80
2020/12/12 04:52:57;;;;;;;79.88;39.60;;;1.20;99.90;;;;;;5039296;28;20204;-80
2020/12/12 04:55:25;;;;;;;71.70;39.17;;;1.10;99.90;;;;;;5043370;28;20204;-81
2020/12/12 04:57:54;;;;;;;74.07;38.58;;;1.10;99.90;;;;;;5044132;28;20322;-82
2020/12/12 05:00:21;;;;;;;80.75;37.70;;;1.10;99.90;;;;;;5043914;28;20219;-81
2020/12/12 05:02:47;;;;;;;79.22;40.47;;;1.10;99.90;;;;;;5048930;28;20208;-81
2020/12/12 05:05:14;;;;;;;78.05;40.97;;;1.10;99.90;;;;;;5049732;28;20234;-81
2020/12/12 05:07:40;;;;;;;74.45;37.85;;;1.10;99.90;;;;;;5045809;28;20229;-80
2020/12/12 05:10:07;;;;;;;74.40;39.78;;;1.10;99.90;;;;;;5044891;28;20235;-80
2020/12/12 05:12:34;;;;;;;84.68;41.65;;;1.10;99.90;;;;;;5046323;28;20204;-80
2020/12/12 05:15:01;;;;;;;77.95;38.97;;;1.10;99.90;;;;;;5045052;28;20242;-81
2020/12/12 05:17:29;;;;;;;70.30;37.28;;;1.10;99.90;;;;;;5046624;28;20295;-81
2020/12/12 05:19:59;;;;;;;82.70;37.55;;;1.10;99.90;;;;;;5053824;28;20210;-81
2020/12/12 05:22:25;;;;;;;72.63;38.47;;;1.20;99.90;;;;;;5053682;28;20211;-80
2020/12/12 05:24:52;;;;;;;80.47;38.95;;;1.10;99.90;;;;;;5053504;28;20223;-81
2020/12/12 05:27:20;;;;;;;72.97;39.22;;;1.10;99.90;;;;;;5048858;28;20306;-81
2020/12/12 05:29:46;;;;;;;82.78;40.95;;;1.10;99.90;;;;;;5041912;28;20207;-81
2020/12/12 05:32:13;;;;;;;77.53;41.85;;;1.20;99.90;;;;;;5042016;28;20203;-80
2020/12/12 05:34:41;;;;;;;73.20;39.50;;;1.10;99.90;;;;;;5041048;28;20234;-82
2020/12/12 05:37:07;;;;;;;75.88;40.00;;;1.10;99.90;;;;;;5046847;28;20203;-81
2020/12/12 05:39:34;;;;;;;78.60;40.35;;;1.10;99.90;;;;;;5044553;28;20242;-80
2020/12/12 05:42:00;;;;;;;76.75;39.85;;;1.10;99.90;;;;;;5046060;28;20204;-80
2020/12/12 05:44:28;;;;;;;76.05;42.00;;;1.10;99.90;;;;;;5048404;28;20204;-81
2020/12/12 05:46:54;;;;;;;83.25;41.92;;;1.10;99.90;;;;;;5047579;28;20207;-81
2020/12/12 05:49:21;;;;;;;75.88;37.80;;;1.10;99.90;;;;;;5061979;22;20258;-75
2020/12/12 05:51:52;;;;;;;76.32;38.50;;;1.10;99.90;;;;;;5038046;28;20210;-77
2020/12/12 05:54:23;;;;;;;73.80;38.53;;;1.10;99.90;;;;;;5036931;28;20203;-77
2020/12/12 05:56:52;;;;;;;79.13;42.58;;;1.10;99.90;;;;;;5037947;28;20196;-76
2020/12/12 05:59:20;;;;;;;75.50;40.22;;;1.00;99.90;;;;;;5038351;28;20227;-77
2020/12/12 06:01:54;;;;;;;79.28;40.90;;;1.10;99.90;;;;;;5037993;28;20577;-77
2020/12/12 06:04:25;;;;;;;71.00;41.83;;;1.20;99.90;;;;;;5040474;28;20218;-76
2020/12/12 06:06:56;;;;;;;75.80;40.25;;;1.20;99.90;;;;;;5035748;28;20191;-76
2020/12/12 06:09:34;;;;;;;78.30;40.72;;;1.20;99.90;;;;;;5036679;28;20589;-76
2020/12/12 06:12:03;;;;;;;86.35;43.85;;;1.10;99.90;;;;;;5037021;28;20191;-76
2020/12/12 06:14:36;;;;;;;74.20;40.45;;;1.10;99.90;;;;;;5036919;28;20233;-76
2020/12/12 06:17:07;;;;;;;75.20;39.83;;;1.10;99.90;;;;;;5040775;28;20222;-76
2020/12/12 06:19:37;;;;;;;79.07;42.28;;;1.10;99.90;;;;;;5039593;28;20281;-76
2020/12/12 06:22:04;;;;;;;73.50;41.15;;;1.10;99.90;;;;;;5041257;28;20306;-76
2020/12/12 06:24:33;;;;;;;82.95;41.20;;;1.10;99.90;;;;;;5041161;28;20203;-76
2020/12/12 06:27:02;;;;;;;74.03;41.13;;;1.10;99.90;;;;;;5039934;28;20203;-76
2020/12/12 06:29:31;;;;;;;73.28;39.92;;;1.10;99.90;;;;;;5039437;28;20223;-76
2020/12/12 06:31:58;;;;;;;71.32;37.97;;;1.10;99.90;;;;;;5038474;28;20203;-76
2020/12/12 06:34:45;;;;;;;72.43;39.30;;;1.10;99.90;;;;;;5037620;28;20589;-76
2020/12/12 06:37:31;;;;;;;65.28;40.25;;;1.10;99.90;;;;;;5037972;28;20231;-76
2020/12/12 06:39:58;;;;;;;79.15;40.72;;;1.20;99.90;;;;;;5037544;28;20192;-76
2020/12/12 06:42:30;;;;;;;77.30;40.50;;;1.10;99.90;;;;;;5037416;28;20209;-76
2020/12/12 06:44:57;;;;;;;73.93;38.83;;;1.20;99.90;;;;;;5037213;28;20199;-77
2020/12/12 06:47:39;;;;;;;70.88;36.63;;;1.10;99.90;;;;;;5037134;28;20577;-76
2020/12/12 06:50:08;;;;;;;67.03;38.78;;;1.10;99.90;;;;;;5036378;28;20207;-77
2020/12/12 06:52:35;;;;;;;71.68;40.63;;;1.10;99.90;;;;;;5037326;28;20207;-77
2020/12/12 06:55:06;;;;;;;78.90;40.58;;;1.20;99.90;;;;;;5037410;28;20771;-76
2020/12/12 06:57:38;;;;;;;73.65;42.28;;;1.20;99.90;;;;;;5037268;28;20284;-76
2020/12/12 07:00:09;;;;;;;71.70;40.88;;;1.20;99.90;;;;;;5037640;28;20202;-76
2020/12/12 07:02:35;;;;;;;69.53;40.55;;;1.10;99.90;;;;;;5037484;28;20198;-77
2020/12/12 07:05:21;;;;;;;63.53;38.05;;;1.20;99.90;;;;;;5041308;28;20199;-76
2020/12/12 07:07:48;;;;;;;67.57;42.30;;;1.10;99.90;;;;;;5036979;28;20591;-77
2020/12/12 07:10:14;;;;;;;70.15;39.63;;;1.10;99.90;;;;;;5037775;28;20199;-77
2020/12/12 07:12:41;;;;;;;74.63;40.60;;;1.10;99.90;;;;;;5037251;28;20294;-77
2020/12/12 07:15:07;;;;;;;87.80;44.35;;;1.10;99.90;;;;;;5036981;28;20208;-76
2020/12/12 07:17:34;;;;;;;95.45;42.28;;;1.10;99.90;;;;;;5036173;28;20204;-77
2020/12/12 07:20:01;;;;;;;78.18;42.65;;;1.10;99.90;;;;;;5036214;28;20212;-77
2020/12/12 07:22:29;;;;;;;80.20;42.83;;;1.10;99.90;;;;;;5034797;28;20206;-77
2020/12/12 07:24:56;;;;;;;79.40;42.47;;;1.10;99.90;;;;;;5036601;28;20206;-77
2020/12/12 07:27:23;;;;;;;76.57;41.42;;;1.10;99.90;;;;;;5036247;28;20583;-77
2020/12/12 07:29:49;;;;;;;82.18;41.97;;;1.10;99.90;;;;;;5034069;28;20204;-77
2020/12/12 07:32:15;;;;;;;78.25;43.53;;;1.10;99.90;;;;;;5035129;28;20213;-77
2020/12/12 07:34:42;;;;;;;79.15;42.20;;;1.10;99.90;;;;;;5036791;28;20223;-77
2020/12/12 07:37:10;;;;;;;78.15;41.92;;;1.10;99.90;;;;;;5036113;28;20232;-77
2020/12/12 07:39:39;;;;;;;78.97;43.03;;;1.10;99.90;;;;;;5036256;28;20230;-77
2020/12/12 07:42:06;;;;;;;76.93;40.90;;;1.20;99.90;;;;;;5035070;28;20208;-77
2020/12/12 07:44:33;;;;;;;72.70;40.40;;;1.20;99.90;;;;;;5034401;28;20668;-77
2020/12/12 07:47:01;;;;;;;86.85;45.05;;;1.30;99.90;;;;;;5035392;28;20203;-76
2020/12/12 07:49:29;;;;;;;82.95;41.97;;;1.30;99.90;;;;;;5036396;28;20267;-76
2020/12/12 07:51:59;;;;;;;79.30;41.20;;;1.30;99.90;;;;;;5036895;28;20294;-77
2020/12/12 07:54:32;;;;;;;79.35;41.35;;;1.30;99.90;;;;;;5036860;28;20223;-77
2020/12/12 07:56:59;;;;;;;84.20;48.15;;;1.20;99.90;;;;;;5036734;28;20453;-77
2020/12/12 07:59:26;;;;;;;77.20;43.08;;;1.20;99.90;;;;;;5040064;28;20449;-78
2020/12/12 08:01:52;;;;;;;80.95;42.67;;;1.30;99.90;;;;;;5036494;28;20253;-77
2020/12/12 08:04:22;;;;;;;79.50;42.58;;;1.30;99.90;;;;;;5036903;28;20202;-77
2020/12/12 08:06:49;;;;;;;86.70;43.28;;;1.30;99.90;;;;;;5036904;28;20188;-76
2020/12/12 08:09:20;;;;;;;84.20;46.30;;;1.30;99.90;;;;;;5036697;28;20228;-78
2020/12/12 08:11:55;;;;;;;81.45;41.90;;;1.20;99.90;;;;;;5035801;28;20204;-77
2020/12/12 08:14:22;;;;;;;76.63;40.78;;;1.20;99.90;;;;;;5035924;28;20215;-77
2020/12/12 08:16:54;;;;;;;84.32;48.10;;;1.30;99.90;;;;;;5035047;28;20516;-77
2020/12/12 08:19:20;;;;;;;87.05;46.22;;;1.30;99.90;;;;;;5035777;28;20223;-77
2020/12/12 08:21:49;;;;;;;85.10;45.53;;;1.30;99.90;;;;;;5035665;28;20210;-77
2020/12/12 08:24:16;;;;;;;75.05;41.03;;;1.30;99.90;;;;;;5036064;28;20291;-77
2020/12/12 08:26:42;;;;;;;74.75;41.70;;;1.30;99.90;;;;;;5035853;28;20212;-77
2020/12/12 08:29:09;;;;;;;79.20;42.25;;;1.30;99.90;;;;;;5036215;28;20223;-76
2020/12/12 08:31:41;;;;;;;82.97;43.88;;;1.30;99.90;;;;;;5039694;28;20203;-77
2020/12/12 08:34:07;;;;;;;82.97;41.85;;;1.30;99.90;;;;;;5039223;28;20208;-78
2020/12/12 08:36:36;;;;;;;87.68;46.33;;;1.40;99.90;;;;;;5038413;28;20504;-78
2020/12/12 08:39:05;;;;;;;90.32;48.67;;;1.40;99.90;;;;;;5039084;28;20473;-76
2020/12/12 08:41:34;;;;;;;84.78;43.45;;;1.40;99.90;;;;;;5039284;28;20208;-77
2020/12/12 08:44:00;;;;;;;79.18;45.20;;;1.40;99.90;;;;;;5039805;28;20590;-77
2020/12/12 08:46:27;;;;;;;81.25;45.22;;;1.50;99.90;;;;;;5040350;28;20192;-77
2020/12/12 08:48:55;;;;;;;83.68;44.95;;;1.50;99.90;;;;;;5040163;28;20258;-76
2020/12/12 08:51:25;;;;;;;87.65;45.45;;;1.50;99.90;;;;;;5039883;28;20210;-77
2020/12/12 08:53:52;;;;;;;88.65;46.40;;;1.50;99.90;;;;;;5038966;28;20298;-77
2020/12/12 08:56:29;;;;;;;84.50;44.78;;;1.50;99.90;;;;;;5038541;28;20204;-77
2020/12/12 08:58:58;;;;;;;87.35;45.58;;;1.50;99.90;;;;;;5036624;28;20910;-76
2020/12/12 09:01:33;;;;;;;102.47;48.05;;;1.50;99.90;;;;;;5037167;28;20257;-77
2020/12/12 09:04:10;;;;;;;79.78;42.45;;;1.50;99.90;;;;;;5038245;28;20214;-77
2020/12/12 09:06:51;;;;;;;80.00;44.38;;;1.50;99.90;;;;;;5037925;28;20187;-77
2020/12/12 09:09:19;;;;;;;83.88;42.65;;;1.50;99.90;;;;;;5037983;28;20734;-77
2020/12/12 09:11:47;;;;;;;80.45;44.90;;;1.60;99.90;;;;;;5040247;28;20267;-76
2020/12/12 09:14:15;;;;;;;87.18;44.30;;;1.60;99.90;;;;;;5041481;28;20607;-78
2020/12/12 09:16:47;;;;;;;94.53;44.35;;;1.50;99.90;;;;;;5039768;28;20207;-76
2020/12/12 09:19:14;;;;;;;91.75;47.22;;;1.60;99.90;;;;;;5041089;28;20220;-76
2020/12/12 09:21:41;;;;;;;82.45;42.30;;;1.60;99.90;;;;;;5042624;28;20207;-76
2020/12/12 09:24:07;;;;;;;90.57;43.22;;;1.60;99.90;;;;;;5042224;28;20267;-76
2020/12/12 09:26:34;;;;;;;94.57;44.83;;;1.70;99.90;;;;;;5041215;28;20203;-78
2020/12/12 09:29:00;;;;;;;83.60;42.97;;;1.70;99.90;;;;;;5038042;28;20224;-78
2020/12/12 09:31:27;;;;;;;80.18;44.10;;;1.70;99.90;;;;;;5038436;28;20207;-77
2020/12/12 09:33:54;;;;;;;96.40;46.58;;;1.70;99.90;;;;;;5037702;28;20242;-77
2020/12/12 09:36:21;;;;;;;101.53;49.33;;;1.70;99.90;;;;;;5038694;28;20525;-78
2020/12/12 09:38:48;;;;;;;94.15;51.00;;;1.70;99.90;;;;;;5036779;28;20451;-77
2020/12/12 09:41:14;;;;;;;82.82;46.20;;;1.70;99.90;;;;;;5036976;28;20311;-77
2020/12/12 09:43:41;;;;;;;86.20;45.03;;;1.80;99.90;;;;;;5037236;28;20678;-77
2020/12/12 09:46:08;;;;;;;82.38;45.67;;;1.80;99.90;;;;;;5036727;28;20200;-77
2020/12/12 09:48:35;;;;;;;82.88;43.72;;;1.80;99.90;;;;;;5035518;28;20235;-77
2020/12/12 09:51:02;;;;;;;82.85;42.65;;;1.90;99.90;;;;;;5036375;28;20578;-77
2020/12/12 09:53:29;;;;;;;89.20;45.58;;;1.80;99.90;;;;;;5036563;28;20759;-77
2020/12/12 09:55:56;;;;;;;92.82;44.92;;;1.80;99.90;;;;;;5037094;28;20207;-76
2020/12/12 09:58:22;;;;;;;95.80;44.25;;;1.80;99.90;;;;;;5037294;28;20277;-76
2020/12/12 10:00:49;;;;;;;78.15;41.08;;;1.90;99.90;;;;;;5036930;28;20203;-77
2020/12/12 10:03:15;;;;;;;86.80;42.45;;;1.90;99.90;;;;;;5037334;28;20208;-77
2020/12/12 10:05:41;;;;;;;81.63;42.28;;;2.00;99.90;;;;;;5036889;28;20214;-77
2020/12/12 10:08:07;;;;;;;75.13;40.53;;;2.00;99.90;;;;;;5037316;28;20224;-77
2020/12/12 10:10:35;;;;;;;77.00;41.55;;;2.00;99.90;;;;;;5036904;28;20210;-77
2020/12/12 10:13:01;;;;;;;88.93;44.78;;;1.90;99.90;;;;;;5037308;28;20231;-77
2020/12/12 10:15:28;;;;;;;78.47;39.20;;;1.90;99.90;;;;;;5037061;28;20296;-77
2020/12/12 10:17:55;;;;;;;80.15;40.17;;;2.10;99.90;;;;;;5036309;28;20223;-77
2020/12/12 10:20:22;;;;;;;81.75;41.15;;;2.00;99.90;;;;;;5036275;28;20188;-77
2020/12/12 10:22:49;;;;;;;78.50;40.92;;;2.00;99.90;;;;;;5036930;28;20214;-77
2020/12/12 10:25:15;;;;;;;95.97;42.30;;;2.00;99.90;;;;;;5036177;28;20206;-76
2020/12/12 10:27:44;;;;;;;85.30;42.60;;;2.00;99.90;;;;;;5036221;28;20223;-76
2020/12/12 10:30:12;;;;;;;73.95;39.20;;;2.00;99.90;;;;;;5036432;28;20562;-77
2020/12/12 10:32:39;;;;;;;80.50;42.63;;;2.10;99.90;;;;;;5035349;28;20242;-77
2020/12/12 10:35:05;;;;;;;79.20;38.80;;;2.10;99.90;;;;;;5035119;28;20215;-77
2020/12/12 10:37:39;;;;;;;80.90;39.78;;;2.20;99.90;;;;;;5036070;28;20204;-77
2020/12/12 10:40:19;;;;;;;79.80;39.42;;;2.30;99.90;;;;;;5036997;28;20641;-77
2020/12/12 10:43:10;;;;;;;78.05;41.15;;;2.30;99.90;;;;;;5036989;28;20187;-78
2020/12/12 10:45:36;;;;;;;83.28;38.60;;;2.30;99.90;;;;;;5035140;28;20192;-77
2020/12/12 10:48:13;;;;;;;75.40;40.63;;;2.30;99.90;;;;;;5034752;28;20227;-77
2020/12/12 10:50:40;;;;;;;85.13;41.55;;;2.40;99.90;;;;;;5035322;28;20199;-78
2020/12/12 10:53:06;;;;;;;75.55;39.50;;;2.40;99.90;;;;;;5036902;28;20203;-78
2020/12/12 10:55:33;;;;;;;74.70;35.65;;;2.50;99.90;;;;;;5034909;28;20294;-78
2020/12/12 10:58:00;;;;;;;76.80;39.95;;;2.50;99.90;;;;;;5047872;28;20234;-78
2020/12/12 11:00:28;;;;;;;75.82;39.80;;;2.50;99.90;;;;;;5048310;28;20210;-78
2020/12/12 11:02:54;;;;;;;76.47;40.75;;;2.60;99.90;;;;;;5041053;28;20208;-78
2020/12/12 11:05:21;;;;;;;81.25;39.38;;;2.60;99.90;;;;;;5038477;28;20202;-78
2020/12/12 11:07:47;;;;;;;87.38;40.63;;;2.60;99.90;;;;;;5042319;28;20272;-78
2020/12/12 11:10:14;;;;;;;78.93;41.25;;;2.70;99.90;;;;;;5040730;28;20254;-77
2020/12/12 11:12:40;;;;;;;68.70;40.42;;;2.70;99.90;;;;;;5036360;28;20235;-77
2020/12/12 11:15:08;;;;;;;71.53;35.85;;;2.70;99.90;;;;;;5037641;28;20795;-77
2020/12/12 11:17:35;;;;;;;68.57;35.47;;;2.70;99.90;;;;;;5037308;28;20593;-77
2020/12/12 11:20:02;;;;;;;74.10;36.10;;;2.70;99.90;;;;;;5037554;28;20211;-78
2020/12/12 11:22:28;;;;;;;84.93;37.72;;;2.80;99.90;;;;;;5046801;28;20340;-78
2020/12/12 11:24:55;;;;;;;74.88;38.30;;;2.80;99.90;;;;;;5040331;28;20204;-77
2020/12/12 11:27:21;;;;;;;78.28;37.78;;;2.80;99.90;;;;;;5036486;28;20207;-78
2020/12/12 11:29:47;;;;;;;73.40;36.15;;;2.80;99.90;;;;;;5037568;28;20195;-78
2020/12/12 11:32:13;;;;;;;110.10;50.15;;;2.80;99.90;;;;;;5037857;28;20210;-78
2020/12/12 11:34:43;;;;;;;71.63;36.92;;;2.90;99.90;;;;;;5039539;28;20220;-78
2020/12/12 11:37:28;;;;;;;70.75;35.33;;;2.90;99.90;;;;;;5036001;28;20192;-78
2020/12/12 11:40:03;;;;;;;66.60;36.00;;;3.00;99.90;;;;;;5035548;28;20251;-77
2020/12/12 11:42:56;;;;;;;69.60;36.00;;;3.00;99.90;;;;;;5036002;28;20197;-77
2020/12/12 11:48:06;;;;;;;66.90;35.17;;;3.00;99.90;;;;;;5053735;22;20223;-78
2020/12/12 11:50:33;;;;;;;74.35;39.47;;;3.00;99.90;;;;;;5036406;28;20218;-78
2020/12/12 11:53:00;;;;;;;73.85;38.65;;;3.00;99.90;;;;;;5039573;28;20660;-77
2020/12/12 11:55:26;;;;;;;67.80;35.97;;;3.00;99.90;;;;;;5033414;28;20211;-77
2020/12/12 11:57:53;;;;;;;63.85;34.88;;;3.10;99.90;;;;;;5033928;28;20200;-78
2020/12/12 12:00:21;;;;;;;63.72;34.75;;;3.10;99.90;;;;;;5034174;28;20210;-78
2020/12/12 12:02:47;;;;;;;68.78;36.05;;;3.10;99.90;;;;;;5034172;28;20715;-77
2020/12/12 12:05:14;;;;;;;72.45;36.85;;;3.00;99.90;;;;;;5035830;28;20255;-77
2020/12/12 12:07:44;;;;;;;75.97;37.17;;;3.00;99.90;;;;;;5037641;28;20204;-77
2020/12/12 12:10:15;;;;;;;69.43;35.40;;;3.00;99.90;;;;;;5038118;28;20191;-78
2020/12/12 12:12:42;;;;;;;69.38;34.63;;;3.10;99.90;;;;;;5038238;28;20717;-78
2020/12/12 12:15:08;;;;;;;62.90;34.10;;;3.00;99.90;;;;;;5039292;28;20232;-79
2020/12/12 12:17:35;;;;;;;67.15;36.50;;;3.00;99.90;;;;;;5038206;28;20207;-77
2020/12/12 12:20:02;;;;;;;66.60;37.00;;;3.10;99.90;;;;;;5038291;28;20208;-77
2020/12/12 12:22:28;;;;;;;70.90;37.53;;;3.10;99.90;;;;;;5037933;28;20639;-78
2020/12/12 12:24:55;;;;;;;69.95;36.88;;;3.10;99.90;;;;;;5038399;28;20194;-77
2020/12/12 12:27:22;;;;;;;72.60;39.10;;;3.10;99.90;;;;;;5037098;28;20191;-77
2020/12/12 12:29:48;;;;;;;74.38;36.30;;;3.10;99.90;;;;;;5037995;28;20227;-80
2020/12/12 12:32:15;;;;;;;69.78;38.00;;;3.10;99.90;;;;;;5037882;28;20188;-77
2020/12/12 12:34:41;;;;;;;79.82;39.80;;;3.10;99.90;;;;;;5038223;28;20204;-78
2020/12/12 12:37:07;;;;;;;75.78;38.97;;;3.10;99.90;;;;;;5037285;28;20210;-77
2020/12/12 12:39:34;;;;;;;71.05;37.80;;;3.10;99.90;;;;;;5037734;28;20236;-77
2020/12/12 12:42:03;;;;;;;73.00;39.08;;;3.10;99.90;;;;;;5036802;28;20215;-77